createdAt,value
2019-04-04T00:00:04.439Z,8.60
2019-04-04T00:01:04.971Z,8.60
2019-04-04T00:02:04.409Z,8.60
2019-04-04T00:03:04.880Z,8.60
2019-04-04T00:04:04.980Z,8.60
2019-04-04T00:05:04.508Z,8.60
2019-04-04T00:06:05.084Z,8.60
2019-04-04T00:07:04.636Z,8.50
2019-04-04T00:08:06.732Z,8.50
2019-04-04T00:09:04.460Z,8.50
2019-04-04T00:10:04.602Z,8.50
2019-04-04T00:11:06.045Z,8.50
2019-04-04T00:12:04.220Z,8.50
2019-04-04T00:13:04.408Z,8.40
2019-04-04T00:14:05.043Z,8.40
2019-04-04T00:15:04.110Z,8.40
2019-04-04T00:16:04.673Z,8.40
2019-04-04T00:17:05.092Z,8.30
2019-04-04T00:18:05.100Z,8.30
2019-04-04T00:19:05.132Z,8.30
2019-04-04T00:20:04.618Z,8.30
2019-04-04T00:21:04.489Z,8.20
2019-04-04T00:22:05.017Z,8.20
2019-04-04T00:23:04.975Z,8.20
2019-04-04T00:24:04.865Z,8.20
2019-04-04T00:25:04.972Z,8.20
2019-04-04T00:26:04.805Z,8.10
2019-04-04T00:27:04.849Z,8.10
2019-04-04T00:28:04.952Z,8.10
2019-04-04T00:29:04.508Z,8.10
2019-04-04T00:30:05.035Z,8.00
2019-04-04T00:31:04.865Z,8.00
2019-04-04T00:32:04.327Z,8.00
2019-04-04T00:33:05.095Z,8.00
2019-04-04T00:34:04.546Z,7.90
2019-04-04T00:35:04.993Z,7.90
2019-04-04T00:36:04.487Z,7.90
2019-04-04T00:37:05.244Z,7.90
2019-04-04T00:38:06.651Z,7.90
2019-04-04T00:39:04.926Z,7.80
2019-04-04T00:40:04.308Z,7.80
2019-04-04T00:41:04.313Z,7.80
2019-04-04T00:42:04.335Z,7.80
2019-04-04T00:43:09.960Z,7.80
2019-04-04T00:44:04.316Z,7.80
2019-04-04T00:45:05.120Z,7.80
2019-04-04T00:46:04.567Z,7.80
2019-04-04T00:47:05.071Z,7.70
2019-04-04T00:48:04.571Z,7.70
2019-04-04T00:49:05.421Z,7.70
2019-04-04T00:50:06.624Z,7.70
2019-04-04T00:51:07.575Z,7.70
2019-04-04T00:52:04.952Z,7.70
2019-04-04T00:53:04.139Z,7.70
2019-04-04T00:54:04.386Z,7.70
2019-04-04T00:55:05.130Z,7.70
2019-04-04T00:56:04.459Z,7.70
2019-04-04T00:57:04.898Z,7.70
2019-04-04T00:58:04.518Z,7.70
2019-04-04T00:59:05.089Z,7.60
2019-04-04T01:00:04.513Z,7.60
2019-04-04T01:01:04.352Z,7.70
2019-04-04T01:02:04.328Z,7.70
2019-04-04T01:03:05.110Z,7.70
2019-04-04T01:04:04.195Z,7.70
2019-04-04T01:05:04.787Z,7.60
2019-04-04T01:06:04.360Z,7.60
2019-04-04T01:07:04.982Z,7.60
2019-04-04T01:08:04.932Z,7.60
2019-04-04T01:09:04.138Z,7.60
2019-04-04T01:10:04.990Z,7.50
2019-04-04T01:11:04.594Z,7.50
2019-04-04T01:12:05.053Z,7.50
2019-04-04T01:13:04.639Z,7.40
2019-04-04T01:14:04.970Z,7.40
2019-04-04T01:15:05.125Z,7.40
2019-04-04T01:16:04.560Z,7.40
2019-04-04T01:17:04.974Z,7.40
2019-04-04T01:18:06.037Z,7.40
2019-04-04T01:19:04.344Z,7.30
2019-04-04T01:20:04.596Z,7.30
2019-04-04T01:21:04.510Z,7.30
2019-04-04T01:22:05.056Z,7.30
2019-04-04T01:23:04.583Z,7.30
2019-04-04T01:24:04.464Z,7.30
2019-04-04T01:25:05.042Z,7.30
2019-04-04T01:26:04.563Z,7.20
2019-04-04T01:27:06.199Z,7.20
2019-04-04T01:28:06.101Z,7.20
2019-04-04T01:29:05.701Z,7.20
2019-04-04T01:30:04.582Z,7.10
2019-04-04T01:31:04.900Z,7.10
2019-04-04T01:32:04.374Z,7.10
2019-04-04T01:33:04.275Z,7.10
2019-04-04T01:34:04.323Z,7.10
2019-04-04T01:35:04.412Z,7.00
2019-04-04T01:36:04.987Z,7.00
2019-04-04T01:37:04.523Z,7.00
2019-04-04T01:38:05.204Z,7.00
2019-04-04T01:39:04.599Z,7.00
2019-04-04T01:40:04.200Z,7.00
2019-04-04T01:41:05.168Z,6.90
2019-04-04T01:42:05.022Z,7.00
2019-04-04T01:43:09.906Z,6.90
2019-04-04T01:44:05.398Z,6.90
2019-04-04T01:45:04.389Z,6.90
2019-04-04T01:46:04.349Z,6.90
2019-04-04T01:47:04.768Z,6.90
2019-04-04T01:48:04.504Z,6.90
2019-04-04T01:49:05.167Z,6.90
2019-04-04T01:50:04.676Z,6.90
2019-04-04T01:51:07.669Z,6.90
2019-04-04T01:52:04.776Z,6.80
2019-04-04T01:53:04.256Z,6.80
2019-04-04T01:54:04.544Z,6.80
2019-04-04T01:55:05.055Z,6.80
2019-04-04T01:56:06.654Z,6.80
2019-04-04T01:57:07.629Z,6.80
2019-04-04T01:58:05.039Z,6.80
2019-04-04T01:59:04.909Z,6.80
2019-04-04T02:00:04.368Z,6.80
2019-04-04T02:01:04.825Z,6.80
2019-04-04T02:02:04.508Z,6.80
2019-04-04T02:03:04.880Z,6.80
2019-04-04T02:04:04.926Z,6.80
2019-04-04T02:05:04.487Z,6.80
2019-04-04T02:06:04.965Z,6.80
2019-04-04T02:07:04.552Z,6.80
2019-04-04T02:08:05.042Z,6.80
2019-04-04T02:09:09.752Z,6.70
2019-04-04T02:10:05.320Z,6.70
2019-04-04T02:11:05.380Z,6.70
2019-04-04T02:12:07.485Z,6.70
2019-04-04T02:13:04.894Z,6.60
2019-04-04T02:14:04.820Z,6.60
2019-04-04T02:15:04.868Z,6.60
2019-04-04T02:16:04.528Z,6.50
2019-04-04T02:17:04.979Z,6.50
2019-04-04T02:18:04.539Z,6.50
2019-04-04T02:19:05.126Z,6.50
2019-04-04T02:20:04.596Z,6.50
2019-04-04T02:21:05.092Z,6.50
2019-04-04T02:22:04.630Z,6.50
2019-04-04T02:23:05.153Z,6.50
2019-04-04T02:24:04.756Z,6.50
2019-04-04T02:25:04.380Z,6.50
2019-04-04T02:26:05.111Z,6.40
2019-04-04T02:27:04.858Z,6.50
2019-04-04T02:28:04.943Z,6.50
2019-04-04T02:29:04.867Z,6.40
2019-04-04T02:30:04.417Z,6.50
2019-04-04T02:31:04.706Z,6.50
2019-04-04T02:32:04.406Z,6.40
2019-04-04T02:33:05.040Z,6.50
2019-04-04T02:34:06.150Z,6.50
2019-04-04T02:35:04.482Z,6.50
2019-04-04T02:36:04.560Z,6.40
2019-04-04T02:37:05.064Z,6.40
2019-04-04T02:38:04.648Z,6.40
2019-04-04T02:39:04.191Z,6.40
2019-04-04T02:40:05.946Z,6.40
2019-04-04T02:41:04.249Z,6.40
2019-04-04T02:42:04.809Z,6.40
2019-04-04T02:43:09.393Z,6.40
2019-04-04T02:44:04.851Z,6.30
2019-04-04T02:45:05.465Z,6.30
2019-04-04T02:46:04.415Z,6.30
2019-04-04T02:47:04.769Z,6.30
2019-04-04T02:48:04.430Z,6.30
2019-04-04T02:49:05.106Z,6.20
2019-04-04T02:50:04.578Z,6.20
2019-04-04T02:51:06.825Z,6.20
2019-04-04T02:52:04.814Z,6.20
2019-04-04T02:53:04.333Z,6.20
2019-04-04T02:54:04.758Z,6.20
2019-04-04T02:55:04.173Z,6.20
2019-04-04T02:56:04.674Z,6.20
2019-04-04T02:57:07.892Z,6.20
2019-04-04T02:58:04.877Z,6.20
2019-04-04T02:59:04.313Z,6.10
2019-04-04T03:00:04.527Z,6.10
2019-04-04T03:01:05.037Z,6.10
2019-04-04T03:02:05.925Z,6.10
2019-04-04T03:03:09.627Z,6.10
2019-04-04T03:04:04.146Z,6.00
2019-04-04T03:05:04.415Z,6.00
2019-04-04T03:06:04.844Z,6.00
2019-04-04T03:07:04.413Z,6.00
2019-04-04T03:08:04.754Z,6.00
2019-04-04T03:09:08.822Z,6.00
2019-04-04T03:10:05.076Z,6.00
2019-04-04T03:11:04.536Z,6.00
2019-04-04T03:12:04.373Z,6.00
2019-04-04T03:13:04.806Z,6.00
2019-04-04T03:14:04.655Z,6.00
2019-04-04T03:15:06.272Z,6.00
2019-04-04T03:16:04.513Z,6.00
2019-04-04T03:17:04.989Z,6.00
2019-04-04T03:18:05.515Z,5.90
2019-04-04T03:19:04.649Z,5.90
2019-04-04T03:20:04.173Z,5.90
2019-04-04T03:21:04.508Z,5.90
2019-04-04T03:22:04.126Z,5.90
2019-04-04T03:23:04.241Z,5.90
2019-04-04T03:24:06.374Z,5.80
2019-04-04T03:25:05.083Z,5.90
2019-04-04T03:26:04.704Z,5.90
2019-04-04T03:27:04.929Z,5.80
2019-04-04T03:28:04.423Z,5.80
2019-04-04T03:29:05.438Z,5.80
2019-04-04T03:30:04.690Z,5.90
2019-04-04T03:31:04.375Z,5.90
2019-04-04T03:32:04.805Z,5.80
2019-04-04T03:33:04.873Z,5.90
2019-04-04T03:34:10.809Z,5.80
2019-04-04T03:35:04.146Z,5.80
2019-04-04T03:36:04.433Z,5.80
2019-04-04T03:37:06.311Z,5.80
2019-04-04T03:38:04.429Z,5.80
2019-04-04T03:39:04.263Z,5.80
2019-04-04T03:40:04.808Z,5.80
2019-04-04T03:41:04.222Z,5.80
2019-04-04T03:42:07.389Z,5.80
2019-04-04T03:43:10.057Z,5.80
2019-04-04T03:44:04.424Z,5.80
2019-04-04T03:45:04.250Z,5.80
2019-04-04T03:46:04.209Z,5.80
2019-04-04T03:47:04.395Z,5.70
2019-04-04T03:48:04.324Z,5.70
2019-04-04T03:49:04.606Z,5.70
2019-04-04T03:50:05.008Z,5.70
2019-04-04T03:51:05.177Z,5.60
2019-04-04T03:52:04.415Z,5.60
2019-04-04T03:53:04.616Z,5.60
2019-04-04T03:54:04.198Z,5.60
2019-04-04T03:55:04.370Z,5.60
2019-04-04T03:56:04.412Z,5.50
2019-04-04T03:57:04.598Z,5.50
2019-04-04T03:58:04.477Z,5.50
2019-04-04T03:59:04.210Z,5.50
2019-04-04T04:00:06.938Z,5.50
2019-04-04T04:01:04.318Z,5.50
2019-04-04T04:02:04.708Z,5.50
2019-04-04T04:03:04.086Z,5.50
2019-04-04T04:04:04.197Z,5.50
2019-04-04T04:05:04.205Z,5.50
2019-04-04T04:06:08.155Z,5.50
2019-04-04T04:07:04.268Z,5.50
2019-04-04T04:08:04.873Z,5.50
2019-04-04T04:09:04.512Z,5.50
2019-04-04T04:10:04.531Z,5.50
2019-04-04T04:11:06.018Z,5.50
2019-04-04T04:12:04.628Z,5.50
2019-04-04T04:13:04.679Z,5.50
2019-04-04T04:14:04.290Z,5.40
2019-04-04T04:15:04.597Z,5.40
2019-04-04T04:16:04.147Z,5.40
2019-04-04T04:17:04.207Z,5.40
2019-04-04T04:18:04.221Z,5.40
2019-04-04T04:19:04.512Z,5.40
2019-04-04T04:20:05.094Z,5.30
2019-04-04T04:21:09.561Z,5.30
2019-04-04T04:22:04.505Z,5.30
2019-04-04T04:23:04.202Z,5.30
2019-04-04T04:24:04.351Z,5.20
2019-04-04T04:25:05.016Z,5.20
2019-04-04T04:26:07.984Z,5.20
2019-04-04T04:27:04.469Z,5.20
2019-04-04T04:28:05.013Z,5.20
2019-04-04T04:29:04.534Z,5.20
2019-04-04T04:30:07.114Z,5.10
2019-04-04T04:31:05.129Z,5.10
2019-04-04T04:32:04.543Z,5.10
2019-04-04T04:33:04.573Z,5.10
2019-04-04T04:34:05.168Z,5.10
2019-04-04T04:35:07.628Z,5.10
2019-04-04T04:36:04.470Z,5.10
2019-04-04T04:37:04.452Z,5.10
2019-04-04T04:38:04.138Z,5.10
2019-04-04T04:39:04.745Z,5.10
2019-04-04T04:40:04.251Z,5.10
2019-04-04T04:41:04.204Z,5.10
2019-04-04T04:42:04.471Z,5.10
2019-04-04T04:43:09.289Z,5.10
2019-04-04T04:44:05.476Z,5.10
2019-04-04T04:45:04.503Z,5.10
2019-04-04T04:46:04.654Z,5.10
2019-04-04T04:47:04.220Z,5.10
2019-04-04T04:48:05.141Z,5.10
2019-04-04T04:49:04.643Z,5.20
2019-04-04T04:50:08.476Z,5.20
2019-04-04T04:51:04.477Z,5.20
2019-04-04T04:52:04.490Z,5.20
2019-04-04T04:53:04.916Z,5.20
2019-04-04T04:54:04.670Z,5.30
2019-04-04T04:55:04.164Z,5.30
2019-04-04T04:56:04.756Z,5.30
2019-04-04T04:57:04.947Z,5.30
2019-04-04T04:58:04.351Z,5.30
2019-04-04T04:59:04.386Z,5.40
2019-04-04T05:00:04.217Z,5.40
2019-04-04T05:01:04.258Z,5.40
2019-04-04T05:02:04.407Z,5.40
2019-04-04T05:03:09.554Z,5.40
2019-04-04T05:04:04.867Z,5.50
2019-04-04T05:05:04.460Z,5.50
2019-04-04T05:06:04.452Z,5.50
2019-04-04T05:07:06.953Z,5.50
2019-04-04T05:08:04.328Z,5.50
2019-04-04T05:09:04.406Z,5.50
2019-04-04T05:10:04.865Z,5.50
2019-04-04T05:11:04.407Z,5.50
2019-04-04T05:12:04.821Z,5.50
2019-04-04T05:13:04.383Z,5.50
2019-04-04T05:14:04.360Z,5.60
2019-04-04T05:15:04.692Z,5.60
2019-04-04T05:16:04.763Z,5.60
2019-04-04T05:17:04.421Z,5.60
2019-04-04T05:18:04.126Z,5.60
2019-04-04T05:19:04.185Z,5.60
2019-04-04T05:20:04.225Z,5.60
2019-04-04T05:21:04.339Z,5.60
2019-04-04T05:22:04.800Z,5.60
2019-04-04T05:23:04.353Z,5.60
2019-04-04T05:24:04.806Z,5.60
2019-04-04T05:25:08.189Z,5.70
2019-04-04T05:26:04.362Z,5.70
2019-04-04T05:27:05.986Z,5.70
2019-04-04T05:28:06.179Z,5.70
2019-04-04T05:29:05.008Z,5.60
2019-04-04T05:30:04.445Z,5.60
2019-04-04T05:31:04.904Z,5.60
2019-04-04T05:32:04.356Z,5.60
2019-04-04T05:33:04.459Z,5.60
2019-04-04T05:34:05.064Z,5.60
2019-04-04T05:35:04.933Z,5.60
2019-04-04T05:36:05.194Z,5.60
2019-04-04T05:37:05.036Z,5.50
2019-04-04T05:38:06.304Z,5.50
2019-04-04T05:39:04.498Z,5.50
2019-04-04T05:40:04.133Z,5.50
2019-04-04T05:41:04.811Z,5.50
2019-04-04T05:42:04.388Z,5.50
2019-04-04T05:43:09.405Z,5.50
2019-04-04T05:44:04.732Z,5.50
2019-04-04T05:45:04.625Z,5.50
2019-04-04T05:46:04.155Z,5.50
2019-04-04T05:47:04.317Z,5.60
2019-04-04T05:48:04.299Z,5.60
2019-04-04T05:49:07.669Z,5.60
2019-04-04T05:50:04.856Z,5.60
2019-04-04T05:51:04.160Z,5.60
2019-04-04T05:52:04.161Z,5.60
2019-04-04T05:53:04.868Z,5.60
2019-04-04T05:54:06.970Z,5.60
2019-04-04T05:55:04.523Z,5.70
2019-04-04T05:56:06.301Z,5.70
2019-04-04T05:57:04.700Z,5.70
2019-04-04T05:58:04.801Z,5.70
2019-04-04T05:59:04.210Z,5.70
2019-04-04T06:00:04.431Z,5.80
2019-04-04T06:01:04.630Z,5.80
2019-04-04T06:02:05.015Z,5.80
2019-04-04T06:03:04.412Z,5.80
2019-04-04T06:04:04.535Z,5.90
2019-04-04T06:05:04.821Z,5.90
2019-04-04T06:06:04.769Z,5.90
2019-04-04T06:07:04.982Z,6.00
2019-04-04T06:08:09.609Z,6.00
2019-04-04T06:09:04.969Z,6.00
2019-04-04T06:10:04.562Z,6.10
2019-04-04T06:11:04.694Z,6.10
2019-04-04T06:12:05.199Z,6.10
2019-04-04T06:13:04.676Z,6.20
2019-04-04T06:14:04.112Z,6.20
2019-04-04T06:15:04.182Z,6.20
2019-04-04T06:16:04.868Z,6.20
2019-04-04T06:17:05.067Z,6.20
2019-04-04T06:18:04.145Z,6.30
2019-04-04T06:19:04.183Z,6.30
2019-04-04T06:20:04.258Z,6.30
2019-04-04T06:21:04.738Z,6.30
2019-04-04T06:22:04.729Z,6.30
2019-04-04T06:23:04.222Z,6.40
2019-04-04T06:24:04.682Z,6.40
2019-04-04T06:25:04.166Z,6.40
2019-04-04T06:26:07.375Z,6.40
2019-04-04T06:27:04.329Z,6.50
2019-04-04T06:28:04.552Z,6.50
2019-04-04T06:29:05.700Z,6.50
2019-04-04T06:30:05.102Z,6.50
2019-04-04T06:31:04.587Z,6.60
2019-04-04T06:32:04.335Z,6.60
2019-04-04T06:33:04.982Z,6.60
2019-04-04T06:34:05.757Z,6.60
2019-04-04T06:35:04.395Z,6.60
2019-04-04T06:36:04.402Z,6.60
2019-04-04T06:37:04.977Z,6.60
2019-04-04T06:38:04.394Z,6.70
2019-04-04T06:39:04.776Z,6.70
2019-04-04T06:40:04.219Z,6.70
2019-04-04T06:41:04.270Z,6.70
2019-04-04T06:42:04.415Z,6.70
2019-04-04T06:43:11.467Z,6.70
2019-04-04T06:44:04.313Z,6.70
2019-04-04T06:45:04.682Z,6.70
2019-04-04T06:46:04.343Z,6.70
2019-04-04T06:47:04.941Z,6.70
2019-04-04T06:48:04.594Z,6.80
2019-04-04T06:49:05.008Z,6.80
2019-04-04T06:50:06.992Z,6.80
2019-04-04T06:51:04.910Z,6.80
2019-04-04T06:52:04.335Z,6.80
2019-04-04T06:53:04.472Z,6.80
2019-04-04T06:54:04.881Z,6.80
2019-04-04T06:55:04.495Z,6.80
2019-04-04T06:56:04.650Z,6.80
2019-04-04T06:57:04.890Z,6.80
2019-04-04T06:58:08.176Z,6.90
2019-04-04T06:59:04.816Z,6.90
2019-04-04T07:00:04.443Z,6.90
2019-04-04T07:01:04.369Z,6.90
2019-04-04T07:02:05.268Z,6.90
2019-04-04T07:03:09.449Z,6.90
2019-04-04T07:04:04.667Z,6.90
2019-04-04T07:05:06.185Z,7.00
2019-04-04T07:06:04.642Z,7.00
2019-04-04T07:07:05.158Z,7.00
2019-04-04T07:08:04.718Z,7.00
2019-04-04T07:09:05.109Z,7.10
2019-04-04T07:10:04.481Z,7.10
2019-04-04T07:11:08.277Z,7.10
2019-04-04T07:12:06.668Z,7.10
2019-04-04T07:13:20.404Z,7.10
2019-04-04T07:14:05.078Z,7.10
2019-04-04T07:15:04.852Z,7.10
2019-04-04T07:16:07.503Z,7.10
2019-04-04T07:17:08.232Z,7.20
2019-04-04T07:18:05.001Z,7.20
2019-04-04T07:19:07.669Z,7.20
2019-04-04T07:20:04.704Z,7.20
2019-04-04T07:21:05.082Z,7.20
2019-04-04T07:22:04.717Z,7.20
2019-04-04T07:23:04.461Z,7.20
2019-04-04T07:24:04.974Z,7.20
2019-04-04T07:25:06.473Z,7.20
2019-04-04T07:26:04.568Z,7.20
2019-04-04T07:27:04.692Z,7.20
2019-04-04T07:28:04.278Z,7.20
2019-04-04T07:29:04.182Z,7.20
2019-04-04T07:30:04.511Z,7.20
2019-04-04T07:31:04.624Z,7.20
2019-04-04T07:32:04.977Z,7.20
2019-04-04T07:33:04.560Z,7.20
2019-04-04T07:34:04.169Z,7.20
2019-04-04T07:35:04.175Z,7.20
2019-04-04T07:36:04.216Z,7.20
2019-04-04T07:37:04.742Z,7.20
2019-04-04T07:38:04.269Z,7.20
2019-04-04T07:39:04.501Z,7.20
2019-04-04T07:40:04.871Z,7.20
2019-04-04T07:41:06.044Z,7.20
2019-04-04T07:42:04.352Z,7.30
2019-04-04T07:43:09.521Z,7.30
2019-04-04T07:44:04.893Z,7.30
2019-04-04T07:45:04.338Z,7.30
2019-04-04T07:46:15.535Z,7.30
2019-04-04T07:47:04.473Z,7.30
2019-04-04T07:48:04.641Z,7.30
2019-04-04T07:49:04.742Z,7.30
2019-04-04T07:50:04.474Z,7.30
2019-04-04T07:51:04.854Z,7.30
2019-04-04T07:52:04.278Z,7.30
2019-04-04T07:53:05.166Z,7.30
2019-04-04T07:54:05.127Z,7.30
2019-04-04T07:55:04.213Z,7.30
2019-04-04T07:56:04.221Z,7.30
2019-04-04T07:57:04.247Z,7.30
2019-04-04T07:58:04.479Z,7.30
2019-04-04T07:59:04.619Z,7.30
2019-04-04T08:00:04.887Z,7.40
2019-04-04T08:01:04.158Z,7.30
2019-04-04T08:02:04.910Z,7.40
2019-04-04T08:03:09.543Z,7.40
2019-04-04T08:04:06.581Z,7.40
2019-04-04T08:05:04.606Z,7.40
2019-04-04T08:06:05.097Z,7.40
2019-04-04T08:07:04.975Z,7.40
2019-04-04T08:08:04.658Z,7.40
2019-04-04T08:09:04.355Z,7.40
2019-04-04T08:10:04.377Z,7.40
2019-04-04T08:11:04.542Z,7.40
2019-04-04T08:12:04.596Z,7.40
2019-04-04T08:13:05.078Z,7.40
2019-04-04T08:14:04.618Z,7.50
2019-04-04T08:15:04.609Z,7.50
2019-04-04T08:16:04.657Z,7.50
2019-04-04T08:17:04.814Z,7.50
2019-04-04T08:18:04.634Z,7.60
2019-04-04T08:19:04.608Z,7.60
2019-04-04T08:20:04.998Z,7.60
2019-04-04T08:21:05.766Z,7.60
2019-04-04T08:22:04.718Z,7.60
2019-04-04T08:23:04.305Z,7.70
2019-04-04T08:24:04.376Z,7.70
2019-04-04T08:25:04.722Z,7.70
2019-04-04T08:26:04.696Z,7.70
2019-04-04T08:27:04.733Z,7.70
2019-04-04T08:28:04.389Z,7.80
2019-04-04T08:29:04.292Z,7.80
2019-04-04T08:30:04.505Z,7.80
2019-04-04T08:31:04.125Z,7.80
2019-04-04T08:32:04.474Z,7.80
2019-04-04T08:33:05.011Z,7.90
2019-04-04T08:34:04.481Z,7.90
2019-04-04T08:35:04.487Z,7.90
2019-04-04T08:36:06.074Z,7.90
2019-04-04T08:37:04.705Z,8.00
2019-04-04T08:38:04.641Z,8.00
2019-04-04T08:39:04.758Z,8.00
2019-04-04T08:40:04.273Z,8.10
2019-04-04T08:41:04.317Z,8.10
2019-04-04T08:42:04.283Z,8.10
2019-04-04T08:43:09.656Z,8.20
2019-04-04T08:44:04.981Z,8.20
2019-04-04T08:45:04.109Z,8.30
2019-04-04T08:46:04.258Z,8.30
2019-04-04T08:47:04.753Z,8.40
2019-04-04T08:48:04.853Z,8.40
2019-04-04T08:49:04.542Z,8.40
2019-04-04T08:50:04.889Z,8.50
2019-04-04T08:51:04.343Z,8.50
2019-04-04T08:52:16.020Z,8.50
2019-04-04T08:53:04.704Z,8.60
2019-04-04T08:54:04.500Z,8.60
2019-04-04T08:55:04.623Z,8.60
2019-04-04T08:56:05.025Z,8.70
2019-04-04T08:57:04.465Z,8.70
2019-04-04T08:58:04.405Z,8.80
2019-04-04T08:59:04.664Z,8.80
2019-04-04T09:00:04.440Z,8.80
2019-04-04T09:01:04.945Z,8.90
2019-04-04T09:02:05.135Z,8.90
2019-04-04T09:03:04.318Z,8.90
2019-04-04T09:04:04.611Z,9.00
2019-04-04T09:05:11.564Z,9.00
2019-04-04T09:06:05.236Z,9.10
2019-04-04T09:07:05.057Z,9.10
2019-04-04T09:08:05.015Z,9.20
2019-04-04T09:09:04.682Z,9.20
2019-04-04T09:10:04.852Z,9.20
2019-04-04T09:11:04.820Z,9.30
2019-04-04T09:12:04.473Z,9.40
2019-04-04T09:13:04.513Z,9.40
2019-04-04T09:14:04.575Z,9.50
2019-04-04T09:15:05.063Z,9.50
2019-04-04T09:16:09.545Z,9.60
2019-04-04T09:17:04.873Z,9.60
2019-04-04T09:18:04.841Z,9.70
2019-04-04T09:19:04.661Z,9.80
2019-04-04T09:20:04.820Z,9.80
2019-04-04T09:21:04.951Z,9.90
2019-04-04T09:22:04.250Z,9.90
2019-04-04T09:23:04.916Z,10.00
2019-04-04T09:24:05.024Z,10.10
2019-04-04T09:25:05.030Z,10.10
2019-04-04T09:26:05.665Z,10.20
2019-04-04T09:27:04.667Z,10.30
2019-04-04T09:28:04.474Z,10.40
2019-04-04T09:29:04.550Z,10.40
2019-04-04T09:30:04.666Z,10.50
2019-04-04T09:31:04.715Z,10.50
2019-04-04T09:32:04.421Z,10.50
2019-04-04T09:33:05.010Z,10.50
2019-04-04T09:34:04.772Z,10.50
2019-04-04T09:35:04.424Z,10.50
2019-04-04T09:36:04.471Z,10.50
2019-04-04T09:37:04.849Z,10.50
2019-04-04T09:38:04.163Z,10.50
2019-04-04T09:39:04.375Z,10.60
2019-04-04T09:40:04.479Z,10.60
2019-04-04T09:41:04.905Z,10.70
2019-04-04T09:42:04.380Z,10.70
2019-04-04T09:43:09.660Z,10.80
2019-04-04T09:44:06.064Z,10.80
2019-04-04T09:45:04.671Z,10.90
2019-04-04T09:46:04.701Z,11.00
2019-04-04T09:47:05.757Z,11.00
2019-04-04T09:48:04.759Z,11.10
2019-04-04T09:49:04.443Z,11.20
2019-04-04T09:50:04.640Z,11.20
2019-04-04T09:51:04.767Z,11.20
2019-04-04T09:52:04.672Z,11.30
2019-04-04T09:53:04.692Z,11.30
2019-04-04T09:54:04.591Z,11.40
2019-04-04T09:55:05.012Z,11.40
2019-04-04T09:56:04.413Z,11.50
2019-04-04T09:57:04.820Z,11.50
2019-04-04T09:58:04.262Z,11.50
2019-04-04T09:59:04.523Z,11.60
2019-04-04T10:00:04.747Z,11.70
2019-04-04T10:01:06.529Z,11.70
2019-04-04T10:02:04.776Z,11.70
2019-04-04T10:03:04.537Z,11.80
2019-04-04T10:04:05.038Z,11.80
2019-04-04T10:05:05.927Z,11.90
2019-04-04T10:06:04.743Z,11.90
2019-04-04T10:07:04.808Z,11.90
2019-04-04T10:08:04.334Z,12.00
2019-04-04T10:09:14.936Z,12.00
2019-04-04T10:10:04.130Z,12.00
2019-04-04T10:11:04.827Z,12.00
2019-04-04T10:12:04.598Z,12.10
2019-04-04T10:13:04.326Z,12.10
2019-04-04T10:14:05.105Z,12.10
2019-04-04T10:15:04.870Z,12.10
2019-04-04T10:16:04.476Z,12.10
2019-04-04T10:17:05.140Z,12.20
2019-04-04T10:18:04.568Z,12.20
2019-04-04T10:19:04.666Z,12.20
2019-04-04T10:20:05.096Z,12.30
2019-04-04T10:21:11.462Z,12.30
2019-04-04T10:22:05.076Z,12.40
2019-04-04T10:23:04.517Z,12.40
2019-04-04T10:24:04.554Z,12.40
2019-04-04T10:25:04.195Z,12.40
2019-04-04T10:26:04.204Z,12.50
2019-04-04T10:27:04.130Z,12.50
2019-04-04T10:28:04.161Z,12.50
2019-04-04T10:29:04.319Z,12.50
2019-04-04T10:30:04.189Z,12.60
2019-04-04T10:31:04.869Z,12.60
2019-04-04T10:32:04.442Z,12.60
2019-04-04T10:33:04.531Z,12.60
2019-04-04T10:34:04.810Z,12.60
2019-04-04T10:35:04.228Z,12.60
2019-04-04T10:36:04.369Z,12.60
2019-04-04T10:37:04.829Z,12.70
2019-04-04T10:38:04.590Z,12.70
2019-04-04T10:39:04.741Z,12.70
2019-04-04T10:40:04.817Z,12.80
2019-04-04T10:41:04.375Z,12.80
2019-04-04T10:42:04.415Z,12.80
2019-04-04T10:43:09.527Z,12.90
2019-04-04T10:44:04.887Z,12.90
2019-04-04T10:45:04.550Z,13.00
2019-04-04T10:46:04.659Z,13.00
2019-04-04T10:47:04.673Z,13.00
2019-04-04T10:48:04.898Z,13.10
2019-04-04T10:49:04.224Z,13.10
2019-04-04T10:50:04.878Z,13.20
2019-04-04T10:51:04.410Z,13.20
2019-04-04T10:52:04.489Z,13.20
2019-04-04T10:53:04.530Z,13.30
2019-04-04T10:54:04.496Z,13.30
2019-04-04T10:55:04.486Z,13.30
2019-04-04T10:56:04.708Z,13.40
2019-04-04T10:57:04.889Z,13.40
2019-04-04T10:58:04.569Z,13.50
2019-04-04T10:59:04.813Z,13.50
2019-04-04T11:00:04.353Z,13.60
2019-04-04T11:01:04.431Z,13.60
2019-04-04T11:02:04.431Z,13.70
2019-04-04T11:03:10.035Z,13.70
2019-04-04T11:04:04.458Z,13.80
2019-04-04T11:05:04.467Z,13.90
2019-04-04T11:06:04.563Z,13.90
2019-04-04T11:07:04.279Z,14.00
2019-04-04T11:08:04.904Z,14.00
2019-04-04T11:09:04.564Z,14.10
2019-04-04T11:10:04.743Z,14.10
2019-04-04T11:11:04.901Z,14.10
2019-04-04T11:12:04.447Z,14.20
2019-04-04T11:13:04.415Z,14.20
2019-04-04T11:14:04.525Z,14.20
2019-04-04T11:15:04.594Z,14.30
2019-04-04T11:16:04.638Z,14.30
2019-04-04T11:17:05.134Z,14.30
2019-04-04T11:18:04.677Z,14.30
2019-04-04T11:19:04.820Z,14.40
2019-04-04T11:20:04.808Z,14.40
2019-04-04T11:21:04.298Z,14.40
2019-04-04T11:22:04.947Z,14.40
2019-04-04T11:23:04.552Z,14.50
2019-04-04T11:24:04.535Z,14.50
2019-04-04T11:25:04.838Z,14.50
2019-04-04T11:26:04.228Z,14.50
2019-04-04T11:27:04.236Z,14.50
2019-04-04T11:28:04.970Z,14.50
2019-04-04T11:29:04.536Z,14.50
2019-04-04T11:30:04.595Z,14.50
2019-04-04T11:31:04.261Z,14.50
2019-04-04T11:32:04.992Z,14.50
2019-04-04T11:33:04.429Z,14.60
2019-04-04T11:34:04.513Z,14.60
2019-04-04T11:35:04.684Z,14.60
2019-04-04T11:36:04.251Z,14.60
2019-04-04T11:37:04.498Z,14.70
2019-04-04T11:38:04.658Z,14.70
2019-04-04T11:39:04.972Z,14.70
2019-04-04T11:40:04.521Z,14.70
2019-04-04T11:41:05.075Z,14.70
2019-04-04T11:42:04.572Z,14.70
2019-04-04T11:43:09.657Z,14.70
2019-04-04T11:44:05.043Z,14.70
2019-04-04T11:45:04.776Z,14.80
2019-04-04T11:46:05.214Z,14.80
2019-04-04T11:47:04.555Z,14.80
2019-04-04T11:48:04.531Z,14.80
2019-04-04T11:49:04.804Z,14.90
2019-04-04T11:50:04.798Z,14.90
2019-04-04T11:51:04.983Z,14.90
2019-04-04T11:52:04.998Z,14.90
2019-04-04T11:53:04.652Z,14.90
2019-04-04T11:54:04.996Z,15.00
2019-04-04T11:55:04.544Z,15.00
2019-04-04T11:56:04.491Z,15.00
2019-04-04T11:57:04.733Z,15.10
2019-04-04T11:58:04.183Z,15.10
2019-04-04T11:59:04.234Z,15.10
2019-04-04T12:00:04.896Z,15.10
2019-04-04T12:01:04.216Z,15.20
2019-04-04T12:02:04.275Z,15.20
2019-04-04T12:03:04.310Z,15.20
2019-04-04T12:04:04.297Z,15.20
2019-04-04T12:05:04.316Z,15.30
2019-04-04T12:06:04.947Z,15.30
2019-04-04T12:07:04.442Z,15.30
2019-04-04T12:08:04.562Z,15.30
2019-04-04T12:09:04.885Z,15.30
2019-04-04T12:10:07.543Z,15.30
2019-04-04T12:11:04.826Z,15.30
2019-04-04T12:12:04.850Z,15.30
2019-04-04T12:13:04.859Z,15.20
2019-04-04T12:14:04.318Z,15.20
2019-04-04T12:15:05.095Z,15.20
2019-04-04T12:16:04.459Z,15.20
2019-04-04T12:17:04.604Z,15.20
2019-04-04T12:18:04.191Z,15.20
2019-04-04T12:19:04.739Z,15.20
2019-04-04T12:20:05.080Z,15.20
2019-04-04T12:21:04.654Z,15.20
2019-04-04T12:22:04.762Z,15.30
2019-04-04T12:23:04.280Z,15.30
2019-04-04T12:24:05.042Z,15.30
2019-04-04T12:25:04.523Z,15.30
2019-04-04T12:26:04.547Z,15.40
2019-04-04T12:27:04.587Z,15.40
2019-04-04T12:28:04.698Z,15.40
2019-04-04T12:29:05.093Z,15.50
2019-04-04T12:30:04.570Z,15.50
2019-04-04T12:31:04.729Z,15.50
2019-04-04T12:32:04.838Z,15.50
2019-04-04T12:33:05.214Z,15.50
2019-04-04T12:34:04.565Z,15.60
2019-04-04T12:35:05.079Z,15.60
2019-04-04T12:36:04.815Z,15.60
2019-04-04T12:37:04.341Z,15.60
2019-04-04T12:38:04.312Z,15.60
2019-04-04T12:39:04.542Z,15.60
2019-04-04T12:40:04.541Z,15.60
2019-04-04T12:41:04.551Z,15.60
2019-04-04T12:42:04.174Z,15.60
2019-04-04T12:43:09.329Z,15.70
2019-04-04T12:44:04.644Z,15.70
2019-04-04T12:45:05.378Z,15.70
2019-04-04T12:46:04.646Z,15.60
2019-04-04T12:47:04.801Z,15.60
2019-04-04T12:48:05.036Z,15.60
2019-04-04T12:49:04.407Z,15.60
2019-04-04T12:50:04.555Z,15.60
2019-04-04T12:51:04.427Z,15.60
2019-04-04T12:52:04.607Z,15.60
2019-04-04T12:53:05.104Z,15.60
2019-04-04T12:54:04.629Z,15.70
2019-04-04T12:55:04.999Z,15.70
2019-04-04T12:56:04.264Z,15.70
2019-04-04T12:57:04.292Z,15.70
2019-04-04T12:58:04.338Z,15.70
2019-04-04T12:59:04.414Z,15.60
2019-04-04T13:00:05.063Z,15.60
2019-04-04T13:01:04.726Z,15.60
2019-04-04T13:02:05.038Z,15.60
2019-04-04T13:03:04.612Z,15.60
2019-04-04T13:04:04.191Z,15.60
2019-04-04T13:05:04.230Z,15.60
2019-04-04T13:06:05.138Z,15.60
2019-04-04T13:07:04.943Z,15.60
2019-04-04T13:08:04.499Z,15.60
2019-04-04T13:09:04.871Z,15.60
2019-04-04T13:10:11.220Z,15.60